Time;durP1;ratioP1;P1;durP2;ratioP2;P2;SDS_P1;SDS_P2;PMS_P1;PMS_P2;Temp;Humidity;BMP_temperature;BMP_pressure;BME280_temperature;BME280_humidity;BME280_pressure;Samples;Min_cycle;Max_cycle;Signal;HPM_P1;HPM_P2
2023/11/30 00:02:22;;;;;;;10.43;4.80;;;;;;;;;;5018715;28;20049;-70
2023/11/30 00:04:56;;;;;;;11.20;5.60;;;;;;;;;;5019454;28;20099;-69
2023/11/30 00:07:24;;;;;;;13.97;5.50;;;;;;;;;;5019711;28;20624;-58
2023/11/30 00:09:52;;;;;;;12.77;6.17;;;;;;;;;;5019021;28;20057;-56
2023/11/30 00:12:26;;;;;;;10.80;5.47;;;;;;;;;;5017494;28;20095;-59
2023/11/30 00:14:53;;;;;;;11.13;5.50;;;;;;;;;;5019801;28;20663;-58
2023/11/30 00:17:47;;;;;;;9.73;5.33;;;;;;;;;;5017044;28;20060;-60
2023/11/30 00:20:14;;;;;;;11.63;5.47;;;;;;;;;;5017290;28;20052;-59
2023/11/30 00:22:48;;;;;;;13.00;5.47;;;;;;;;;;5013233;28;20114;-59
2023/11/30 00:25:16;;;;;;;;;;;;;;;;;;5018028;28;20085;-58
2023/11/30 00:27:43;;;;;;;16.77;5.73;;;;;;;;;;5018451;28;19937;-59
2023/11/30 00:30:17;;;;;;;12.50;5.87;;;;;;;;;;5019107;28;20123;-59
2023/11/30 00:32:44;;;;;;;9.87;5.57;;;;;;;;;;5019898;28;20060;-59
2023/11/30 00:35:11;;;;;;;9.77;4.87;;;;;;;;;;5016937;28;20148;-59
2023/11/30 00:37:44;;;;;;;11.00;5.63;;;;;;;;;;5016912;28;20170;-59
2023/11/30 00:40:11;;;;;;;;;;;;;;;;;;5019538;28;20087;-62
2023/11/30 00:42:45;;;;;;;13.70;6.27;;;;;;;;;;5018998;28;21908;-59
2023/11/30 00:45:13;;;;;;;15.00;5.63;;;;;;;;;;5019828;28;20327;-56
2023/11/30 00:47:41;;;;;;;15.13;6.43;;;;;;;;;;5016312;28;20847;-60
2023/11/30 00:50:15;;;;;;;13.83;5.97;;;;;;;;;;5020012;28;20064;-59
2023/11/30 00:52:48;;;;;;;11.57;5.47;;;;;;;;;;5017126;28;20080;-59
2023/11/30 00:55:22;;;;;;;12.13;5.93;;;;;;;;;;5014139;28;20130;-60
2023/11/30 00:57:56;;;;;;;14.43;5.67;;;;;;;;;;5016999;28;20107;-60
2023/11/30 01:00:30;;;;;;;11.33;5.50;;;;;;;;;;5012905;28;20064;-60
2023/11/30 01:03:07;;;;;;;12.30;5.40;;;;;;;;;;5017027;28;20049;-61
2023/11/30 01:05:34;;;;;;;11.00;5.50;;;;;;;;;;5016003;28;20050;-60
2023/11/30 01:08:01;;;;;;;11.60;5.50;;;;;;;;;;5012350;28;20049;-60
2023/11/30 01:10:36;;;;;;;12.63;6.20;;;;;;;;;;5016786;28;20106;-59
2023/11/30 01:13:03;;;;;;;12.70;6.10;;;;;;;;;;5011499;28;20111;-59
2023/11/30 01:15:30;;;;;;;;;;;;;;;;;;5011536;28;20572;-60
2023/11/30 01:18:04;;;;;;;12.33;5.50;;;;;;;;;;5020038;28;20360;-60
2023/11/30 01:20:35;;;;;;;11.77;5.43;;;;;;;;;;5018824;28;20069;-60
2023/11/30 01:23:28;;;;;;;12.27;5.40;;;;;;;;;;5013434;28;20053;-60
2023/11/30 01:26:16;;;;;;;13.23;5.63;;;;;;;;;;5017958;28;20142;-60
2023/11/30 01:29:09;;;;;;;13.17;5.73;;;;;;;;;;5016324;28;20061;-60
2023/11/30 01:31:56;;;;;;;11.33;5.53;;;;;;;;;;5015460;28;20084;-60
2023/11/30 01:34:50;;;;;;;14.23;5.50;;;;;;;;;;5015268;28;20319;-59
2023/11/30 01:37:38;;;;;;;11.40;5.53;;;;;;;;;;5014796;28;20060;-59
2023/11/30 01:40:32;;;;;;;13.33;5.23;;;;;;;;;;5017920;28;20049;-59
2023/11/30 01:43:21;;;;;;;11.20;4.72;;;;;;;;;;5021340;28;20646;-57
2023/11/30 01:46:14;;;;;;;9.27;4.53;;;;;;;;;;5019822;28;20504;-48
2023/11/30 01:49:02;;;;;;;11.87;6.10;;;;;;;;;;5017323;28;20150;-50
2023/11/30 01:51:56;;;;;;;11.70;5.37;;;;;;;;;;5012898;28;20060;-48
2023/11/30 01:54:43;;;;;;;7.22;3.78;;;;;;;;;;5015399;28;20061;-54
2023/11/30 01:57:39;;;;;;;12.33;5.20;;;;;;;;;;5019825;28;20055;-51
2023/11/30 02:00:32;;;;;;;;;;;;;;;;;;5012678;28;20057;-61
2023/11/30 02:03:27;;;;;;;10.40;5.30;;;;;;;;;;5020188;28;19929;-60
2023/11/30 02:06:17;;;;;;;13.15;5.75;;;;;;;;;;5013972;28;20156;-60
2023/11/30 02:08:51;;;;;;;11.80;5.40;;;;;;;;;;5013035;28;20633;-61
2023/11/30 02:11:18;;;;;;;13.40;5.53;;;;;;;;;;5015747;28;20088;-60
2023/11/30 02:13:45;;;;;;;15.53;6.70;;;;;;;;;;5015538;28;20132;-56
2023/11/30 02:16:18;;;;;;;13.97;6.47;;;;;;;;;;5020013;28;20053;-57
2023/11/30 02:18:46;;;;;;;14.43;6.37;;;;;;;;;;5017743;28;20096;-55
2023/11/30 02:21:19;;;;;;;12.40;6.23;;;;;;;;;;5014716;28;20467;-57
2023/11/30 02:23:50;;;;;;;10.63;4.73;;;;;;;;;;5019558;28;20049;-55
2023/11/30 02:26:17;;;;;;;14.40;6.57;;;;;;;;;;5020106;28;20412;-56
2023/11/30 02:28:51;;;;;;;12.50;6.33;;;;;;;;;;5016617;28;20139;-60
2023/11/30 02:31:18;;;;;;;;;;;;;;;;;;5018464;28;20053;-69
2023/11/30 02:33:53;;;;;;;12.03;4.63;;;;;;;;;;5015212;28;20007;-60
2023/11/30 02:36:20;;;;;;;15.63;6.33;;;;;;;;;;5017766;28;20060;-59
2023/11/30 02:39:13;;;;;;;15.20;6.13;;;;;;;;;;5022276;28;20045;-59
2023/11/30 02:42:01;;;;;;;15.37;6.27;;;;;;;;;;5016373;28;20175;-59
2023/11/30 02:44:54;;;;;;;13.17;6.20;;;;;;;;;;5014189;28;20045;-60
2023/11/30 02:47:42;;;;;;;13.77;6.03;;;;;;;;;;5016392;28;20596;-60
2023/11/30 02:50:36;;;;;;;13.47;6.83;;;;;;;;;;5017091;28;20081;-60
2023/11/30 02:53:23;;;;;;;14.97;7.40;;;;;;;;;;5017064;28;20041;-60
2023/11/30 02:56:17;;;;;;;12.90;6.30;;;;;;;;;;5013452;28;20045;-60
2023/11/30 02:59:10;;;;;;;11.33;5.63;;;;;;;;;;5014403;28;20062;-60
2023/11/30 03:02:11;;;;;;;13.17;5.97;;;;;;;;;;5013618;28;20057;-60
2023/11/30 03:04:57;;;;;;;12.13;6.20;;;;;;;;;;5016343;28;20164;-59
2023/11/30 03:07:52;;;;;;;12.87;6.27;;;;;;;;;;5014030;28;20527;-60
2023/11/30 03:10:39;;;;;;;14.67;6.60;;;;;;;;;;5014963;28;20064;-60
2023/11/30 03:13:33;;;;;;;15.80;6.87;;;;;;;;;;5019572;28;20057;-61
2023/11/30 03:16:23;;;;;;;13.17;6.07;;;;;;;;;;5018362;28;20077;-58
2023/11/30 03:19:16;;;;;;;14.37;6.17;;;;;;;;;;5016973;28;20104;-58
2023/11/30 03:22:04;;;;;;;9.82;5.45;;;;;;;;;;5017108;28;20057;-56
2023/11/30 03:24:58;;;;;;;15.87;6.33;;;;;;;;;;5017469;28;20112;-57
2023/11/30 03:27:45;;;;;;;19.27;7.23;;;;;;;;;;5012638;28;20927;-51
2023/11/30 03:30:38;;;;;;;14.20;6.77;;;;;;;;;;5013569;28;20107;-60
2023/11/30 03:33:25;;;;;;;10.60;5.83;;;;;;;;;;5015515;28;20100;-60
2023/11/30 03:36:19;;;;;;;12.67;6.53;;;;;;;;;;5014890;28;20050;-60
2023/11/30 03:39:14;;;;;;;16.13;6.53;;;;;;;;;;5015818;28;20112;-60
2023/11/30 03:42:07;;;;;;;13.97;6.97;;;;;;;;;;5018328;28;20073;-60
2023/11/30 03:44:55;;;;;;;14.40;6.90;;;;;;;;;;5019879;28;20111;-58
2023/11/30 03:47:48;;;;;;;16.53;7.30;;;;;;;;;;5017374;28;20131;-58
2023/11/30 03:50:36;;;;;;;14.10;7.23;;;;;;;;;;5014473;28;20796;-57
2023/11/30 03:53:29;;;;;;;13.30;6.90;;;;;;;;;;5018660;28;21367;-57
2023/11/30 03:56:17;;;;;;;15.27;6.33;;;;;;;;;;5012339;28;20430;-69
2023/11/30 03:59:23;;;;;;;13.97;6.60;;;;;;;;;;5015760;28;20103;-62
2023/11/30 04:02:17;;;;;;;14.90;6.30;;;;;;;;;;5019377;28;20046;-56
2023/11/30 04:05:13;;;;;;;10.23;5.27;;;;;;;;;;5016010;28;20057;-56
2023/11/30 04:08:00;;;;;;;11.50;6.20;;;;;;;;;;5011543;28;20116;-55
2023/11/30 04:10:52;;;;;;;12.30;6.50;;;;;;;;;;5018759;28;20993;-58
2023/11/30 04:13:40;;;;;;;19.67;7.87;;;;;;;;;;5020276;28;20064;-63
2023/11/30 04:16:34;;;;;;;13.80;6.37;;;;;;;;;;5019460;28;20072;-63
2023/11/30 04:19:21;;;;;;;11.43;6.30;;;;;;;;;;5018530;28;20047;-63
2023/11/30 04:22:14;;;;;;;15.70;6.93;;;;;;;;;;5015014;28;20098;-63
2023/11/30 04:25:02;;;;;;;13.73;6.60;;;;;;;;;;5015958;28;20115;-54
2023/11/30 04:27:56;;;;;;;15.53;7.23;;;;;;;;;;5016767;28;20052;-60
2023/11/30 04:30:43;;;;;;;15.80;6.77;;;;;;;;;;5018614;28;20557;-59
2023/11/30 04:33:37;;;;;;;15.97;8.10;;;;;;;;;;5019858;28;20046;-60
2023/11/30 04:36:24;;;;;;;15.67;7.17;;;;;;;;;;5015104;28;21874;-59
2023/11/30 04:39:18;;;;;;;16.47;7.37;;;;;;;;;;5020819;28;20103;-60
2023/11/30 04:42:05;;;;;;;16.37;7.10;;;;;;;;;;5020493;28;20128;-60
2023/11/30 04:44:58;;;;;;;14.90;6.70;;;;;;;;;;5012024;28;20073;-60
2023/11/30 04:47:52;;;;;;;14.67;7.00;;;;;;;;;;5016708;28;20504;-60
2023/11/30 04:50:40;;;;;;;17.17;7.33;;;;;;;;;;5016455;28;20053;-60
2023/11/30 04:53:34;;;;;;;14.90;7.50;;;;;;;;;;5015203;28;20054;-60
2023/11/30 04:56:21;;;;;;;15.47;7.47;;;;;;;;;;5009279;28;20443;-60
2023/11/30 04:59:27;;;;;;;13.17;6.40;;;;;;;;;;5013096;28;20115;-61
2023/11/30 05:02:21;;;;;;;13.63;6.30;;;;;;;;;;5016572;28;20077;-60
2023/11/30 05:05:16;;;;;;;13.43;7.07;;;;;;;;;;5012957;28;20061;-62
2023/11/30 05:08:03;;;;;;;11.93;6.00;;;;;;;;;;5017593;28;20049;-60
2023/11/30 05:10:57;;;;;;;14.40;6.77;;;;;;;;;;5016427;28;20069;-64
2023/11/30 05:13:44;;;;;;;13.77;6.40;;;;;;;;;;5018623;28;20745;-63
2023/11/30 05:16:37;;;;;;;15.33;7.60;;;;;;;;;;5014623;28;20053;-63
2023/11/30 05:19:25;;;;;;;16.70;7.63;;;;;;;;;;5013170;28;20566;-61
2023/11/30 05:22:18;;;;;;;14.57;7.10;;;;;;;;;;5012587;28;20081;-58
2023/11/30 05:25:06;;;;;;;13.50;6.80;;;;;;;;;;5016124;28;20053;-58
2023/11/30 05:28:00;;;;;;;14.07;6.90;;;;;;;;;;5015390;28;20830;-56
2023/11/30 05:30:50;;;;;;;11.02;6.13;;;;;;;;;;5020522;28;20045;-57
2023/11/30 05:33:43;;;;;;;12.27;6.30;;;;;;;;;;5016806;28;20053;-58
2023/11/30 05:36:31;;;;;;;13.05;6.45;;;;;;;;;;5011802;28;20894;-57
2023/11/30 05:39:24;;;;;;;11.50;5.55;;;;;;;;;;5017868;28;20052;-62
2023/11/30 05:42:12;;;;;;;13.10;6.15;;;;;;;;;;5018063;28;20061;-63
2023/11/30 05:45:06;;;;;;;12.53;6.20;;;;;;;;;;5014316;28;20107;-63
2023/11/30 05:47:53;;;;;;;12.25;5.90;;;;;;;;;;5016729;28;20046;-63
2023/11/30 05:50:47;;;;;;;17.25;6.35;;;;;;;;;;5014673;28;20115;-61
2023/11/30 05:53:41;;;;;;;11.68;5.28;;;;;;;;;;5011259;28;20057;-60
2023/11/30 05:56:28;;;;;;;12.03;5.77;;;;;;;;;;5012625;28;20136;-61
2023/11/30 05:59:31;;;;;;;11.13;5.40;;;;;;;;;;5017243;28;20062;-60
2023/11/30 06:02:20;;;;;;;12.73;5.82;;;;;;;;;;5016532;28;20143;-60
2023/11/30 06:05:12;;;;;;;12.98;6.05;;;;;;;;;;5018922;28;20095;-60
2023/11/30 06:07:59;;;;;;;12.90;6.30;;;;;;;;;;5018321;28;20611;-58
2023/11/30 06:10:52;;;;;;;12.02;6.13;;;;;;;;;;5021939;28;20504;-68
2023/11/30 06:13:46;;;;;;;15.17;6.90;;;;;;;;;;5018749;28;20087;-68
2023/11/30 06:16:41;;;;;;;13.48;7.50;;;;;;;;;;5019371;28;20089;-68
2023/11/30 06:19:28;;;;;;;13.73;7.35;;;;;;;;;;5018208;28;20057;-68
2023/11/30 06:22:21;;;;;;;16.13;7.10;;;;;;;;;;5015468;28;20049;-69
2023/11/30 06:25:09;;;;;;;20.70;9.15;;;;;;;;;;5016461;28;20079;-68
2023/11/30 06:28:02;;;;;;;20.98;8.00;;;;;;;;;;5016341;28;20099;-70
2023/11/30 06:30:56;;;;;;;14.93;7.10;;;;;;;;;;5020498;28;20041;-68
2023/11/30 06:33:44;;;;;;;16.85;7.80;;;;;;;;;;5012453;28;20053;-68
2023/11/30 06:36:37;;;;;;;15.75;8.40;;;;;;;;;;5019926;28;21313;-59
2023/11/30 06:39:25;;;;;;;16.42;7.57;;;;;;;;;;5022207;28;20096;-69
2023/11/30 06:42:18;;;;;;;18.67;8.00;;;;;;;;;;5018443;28;20053;-68
2023/11/30 06:45:13;;;;;;;15.75;7.28;;;;;;;;;;5017875;28;20643;-68
2023/11/30 06:48:00;;;;;;;17.90;7.65;;;;;;;;;;5015449;28;20053;-68
2023/11/30 06:50:54;;;;;;;15.90;7.20;;;;;;;;;;5018014;28;20053;-67
2023/11/30 06:53:41;;;;;;;17.05;8.30;;;;;;;;;;5017612;28;20049;-62
2023/11/30 06:56:34;;;;;;;16.02;7.38;;;;;;;;;;5018223;28;20061;-62
2023/11/30 06:59:28;;;;;;;15.57;7.82;;;;;;;;;;5015094;28;20107;-62
2023/11/30 07:02:29;;;;;;;11.38;7.03;;;;;;;;;;5018511;28;20057;-63
2023/11/30 07:05:16;;;;;;;15.45;7.85;;;;;;;;;;5018857;28;20057;-61
2023/11/30 07:08:11;;;;;;;16.33;8.02;;;;;;;;;;5019627;28;20099;-51
2023/11/30 07:10:57;;;;;;;13.80;7.47;;;;;;;;;;5016429;28;20097;-50
2023/11/30 07:13:52;;;;;;;13.27;6.72;;;;;;;;;;5018187;28;20049;-49
2023/11/30 07:16:39;;;;;;;15.40;7.38;;;;;;;;;;5019475;28;20053;-52
2023/11/30 07:19:32;;;;;;;11.20;5.72;;;;;;;;;;5018217;28;21026;-51
2023/11/30 07:22:22;;;;;;;8.98;5.22;;;;;;;;;;5018885;28;20127;-59
2023/11/30 07:25:14;;;;;;;11.23;5.78;;;;;;;;;;5019020;28;20056;-60
2023/11/30 07:28:01;;;;;;;9.25;5.25;;;;;;;;;;5022786;28;20107;-59
2023/11/30 07:31:01;;;;;;;11.80;5.15;;;;;;;;;;5018181;28;20076;-60
2023/11/30 07:33:49;;;;;;;8.48;5.07;;;;;;;;;;5020398;28;20064;-68
2023/11/30 07:36:43;;;;;;;10.00;5.38;;;;;;;;;;5023896;28;20131;-60
2023/11/30 07:39:31;;;;;;;8.10;4.80;;;;;;;;;;5015070;28;20382;-60
2023/11/30 07:42:23;;;;;;;10.48;5.43;;;;;;;;;;5020210;28;20096;-60
2023/11/30 07:45:11;;;;;;;8.82;5.30;;;;;;;;;;5021536;28;20049;-60
2023/11/30 07:48:06;;;;;;;9.32;5.35;;;;;;;;;;5016882;28;20049;-60
2023/11/30 07:50:53;;;;;;;7.07;4.55;;;;;;;;;;5022496;28;20096;-62
2023/11/30 07:53:47;;;;;;;10.82;6.25;;;;;;;;;;5020955;28;20053;-62
2023/11/30 07:56:34;;;;;;;9.23;5.22;;;;;;;;;;5018804;28;20052;-62
2023/11/30 07:59:40;;;;;;;10.70;5.55;;;;;;;;;;5018614;28;20509;-62
2023/11/30 08:02:35;;;;;;;12.93;6.25;;;;;;;;;;5019185;28;20061;-62
2023/11/30 08:05:29;;;;;;;11.02;5.78;;;;;;;;;;5021440;28;20119;-59
2023/11/30 08:08:17;;;;;;;9.23;5.25;;;;;;;;;;5020253;28;20054;-58
2023/11/30 08:11:10;;;;;;;9.48;5.03;;;;;;;;;;5014826;28;20148;-59
2023/11/30 08:13:57;;;;;;;11.30;5.93;;;;;;;;;;5023638;28;20049;-59
2023/11/30 08:16:50;;;;;;;14.20;6.35;;;;;;;;;;5022727;28;20115;-60
2023/11/30 08:19:38;;;;;;;10.38;5.72;;;;;;;;;;5023211;28;20045;-62
2023/11/30 08:22:32;;;;;;;9.85;5.88;;;;;;;;;;5020390;28;20147;-62
2023/11/30 08:25:19;;;;;;;12.68;6.70;;;;;;;;;;5020475;28;20060;-62
2023/11/30 08:28:13;;;;;;;10.93;5.75;;;;;;;;;;5019922;28;20057;-62
2023/11/30 08:31:08;;;;;;;10.73;6.07;;;;;;;;;;5019175;28;20049;-47
2023/11/30 08:34:00;;;;;;;11.63;5.85;;;;;;;;;;5020469;28;20057;-59
2023/11/30 08:36:48;;;;;;;11.82;5.68;;;;;;;;;;5016303;28;20053;-60
2023/11/30 08:39:42;;;;;;;12.40;6.15;;;;;;;;;;5019527;28;20497;-59
2023/11/30 08:42:29;;;;;;;11.57;5.85;;;;;;;;;;5018981;28;20500;-60
2023/11/30 08:45:23;;;;;;;11.43;6.13;;;;;;;;;;5020810;28;20065;-60
2023/11/30 08:48:11;;;;;;;11.77;5.75;;;;;;;;;;5020629;28;20050;-68
2023/11/30 08:51:05;;;;;;;9.98;5.72;;;;;;;;;;5017163;28;20065;-68
2023/11/30 08:53:52;;;;;;;13.95;5.30;;;;;;;;;;5014386;28;20428;-66
2023/11/30 08:56:45;;;;;;;9.45;5.25;;;;;;;;;;5019774;28;20748;-60
2023/11/30 08:59:33;;;;;;;10.55;5.35;;;;;;;;;;5007792;28;20512;-58
2023/11/30 09:02:36;;;;;;;11.98;5.57;;;;;;;;;;5020036;28;20053;-61
2023/11/30 09:05:27;;;;;;;9.65;5.07;;;;;;;;;;5018570;28;20104;-61
2023/11/30 09:08:14;;;;;;;9.05;5.30;;;;;;;;;;5019037;28;20080;-61
2023/11/30 09:11:07;;;;;;;9.70;5.30;;;;;;;;;;5021513;28;20293;-61
2023/11/30 09:13:55;;;;;;;8.82;5.20;;;;;;;;;;5017928;28;20081;-61
2023/11/30 09:16:48;;;;;;;9.60;5.50;;;;;;;;;;5017729;28;20098;-61
2023/11/30 09:19:36;;;;;;;7.05;4.32;;;;;;;;;;5019988;28;20077;-60
2023/11/30 09:22:29;;;;;;;9.38;5.05;;;;;;;;;;5016887;28;20049;-60
2023/11/30 09:25:17;;;;;;;8.15;4.68;;;;;;;;;;5021144;28;20111;-61
2023/11/30 09:28:10;;;;;;;9.90;4.78;;;;;;;;;;5021072;28;20316;-60
2023/11/30 09:30:58;;;;;;;7.00;4.15;;;;;;;;;;5021098;28;20054;-68
2023/11/30 09:33:53;;;;;;;7.20;4.28;;;;;;;;;;5019696;28;20080;-68
2023/11/30 09:36:39;;;;;;;7.22;4.20;;;;;;;;;;5016800;28;20083;-68
2023/11/30 09:39:40;;;;;;;7.68;4.43;;;;;;;;;;5018362;28;20123;-67
2023/11/30 09:42:27;;;;;;;8.40;4.55;;;;;;;;;;5018242;28;20064;-68
2023/11/30 09:45:22;;;;;;;7.45;4.20;;;;;;;;;;5018377;28;20049;-59
2023/11/30 09:48:08;;;;;;;7.82;3.80;;;;;;;;;;5019042;28;20084;-59
2023/11/30 09:51:02;;;;;;;6.53;3.90;;;;;;;;;;5016536;28;20148;-59
2023/11/30 09:53:49;;;;;;;7.13;3.72;;;;;;;;;;5015774;28;20081;-62
2023/11/30 09:56:42;;;;;;;7.38;4.55;;;;;;;;;;5020681;28;20052;-59
2023/11/30 09:59:58;;;;;;;8.10;4.53;;;;;;;;;;5019475;28;20059;-59
2023/11/30 10:02:55;;;;;;;8.93;4.78;;;;;;;;;;5015358;28;20057;-60
2023/11/30 10:05:49;;;;;;;7.45;4.60;;;;;;;;;;5016502;28;20057;-60
2023/11/30 10:08:36;;;;;;;8.35;5.40;;;;;;;;;;5021113;28;20059;-59
2023/11/30 10:11:30;;;;;;;9.05;5.20;;;;;;;;;;5019767;28;20115;-59
2023/11/30 10:14:18;;;;;;;9.07;5.53;;;;;;;;;;5021621;28;20053;-48
2023/11/30 10:17:11;;;;;;;9.23;5.70;;;;;;;;;;5016630;28;20057;-53
2023/11/30 10:19:58;;;;;;;9.05;5.40;;;;;;;;;;5019669;28;20069;-51
2023/11/30 10:22:52;;;;;;;9.63;5.75;;;;;;;;;;5013684;28;20184;-59
2023/11/30 10:25:41;;;;;;;11.35;5.45;;;;;;;;;;5019728;28;20115;-58
2023/11/30 10:28:35;;;;;;;8.32;5.43;;;;;;;;;;5017343;28;20049;-55
2023/11/30 10:31:22;;;;;;;9.60;5.65;;;;;;;;;;5015937;28;20706;-58
2023/11/30 10:34:18;;;;;;;9.05;5.68;;;;;;;;;;5018366;28;20057;-58
2023/11/30 10:37:20;;;;;;;8.15;4.90;;;;;;;;;;5019798;28;20073;-56
2023/11/30 10:40:12;;;;;;;9.23;5.65;;;;;;;;;;5021299;28;20067;-58
2023/11/30 10:43:06;;;;;;;8.35;5.68;;;;;;;;;;5020060;28;20496;-62
2023/11/30 10:45:54;;;;;;;6.93;5.22;;;;;;;;;;5016590;28;20073;-62
2023/11/30 10:48:47;;;;;;;9.32;5.95;;;;;;;;;;5016090;28;20424;-62
2023/11/30 10:51:34;;;;;;;7.57;5.20;;;;;;;;;;5017515;28;20053;-62
2023/11/30 10:54:35;;;;;;;10.07;6.30;;;;;;;;;;5016527;28;20061;-59
2023/11/30 10:57:22;;;;;;;7.00;4.78;;;;;;;;;;5018038;28;20472;-59
2023/11/30 11:00:30;;;;;;;8.38;5.40;;;;;;;;;;5014888;28;20087;-60
2023/11/30 11:03:24;;;;;;;10.73;5.40;;;;;;;;;;5019205;28;20061;-60
2023/11/30 11:06:23;;;;;;;10.65;5.30;;;;;;;;;;5017816;28;20144;-60
2023/11/30 11:09:12;;;;;;;7.82;5.10;;;;;;;;;;5017256;28;20420;-59
2023/11/30 11:12:05;;;;;;;12.00;4.75;;;;;;;;;;5018075;28;20061;-59
2023/11/30 11:15:08;;;;;;;8.20;4.77;;;;;;;;;;5019287;28;20067;-58
2023/11/30 11:18:07;;;;;;;6.78;4.65;;;;;;;;;;5018537;28;20077;-57
2023/11/30 11:20:53;;;;;;;8.25;5.00;;;;;;;;;;5020405;28;20061;-62
2023/11/30 11:23:48;;;;;;;7.63;4.90;;;;;;;;;;5016543;28;20506;-59
2023/11/30 11:26:42;;;;;;;9.88;4.55;;;;;;;;;;5014008;28;20057;-58
2023/11/30 11:29:35;;;;;;;8.27;4.60;;;;;;;;;;5013911;28;20515;-59
2023/11/30 11:32:23;;;;;;;6.80;4.10;;;;;;;;;;5016174;28;21480;-59
2023/11/30 11:35:16;;;;;;;7.90;4.57;;;;;;;;;;5015552;28;20041;-59
2023/11/30 11:38:04;;;;;;;6.50;4.43;;;;;;;;;;5018835;28;20065;-61
2023/11/30 11:40:57;;;;;;;6.85;4.57;;;;;;;;;;5018276;28;20045;-62
2023/11/30 11:43:47;;;;;;;9.13;4.70;;;;;;;;;;5020585;28;20053;-62
2023/11/30 11:46:41;;;;;;;7.45;4.40;;;;;;;;;;5019119;28;20103;-62
2023/11/30 11:49:35;;;;;;;6.35;4.45;;;;;;;;;;5012790;28;20115;-49
2023/11/30 11:52:23;;;;;;;5.15;3.80;;;;;;;;;;5018723;28;20061;-57
2023/11/30 11:55:17;;;;;;;7.18;4.53;;;;;;;;;;5017015;28;20057;-57
2023/11/30 11:58:04;;;;;;;5.60;4.40;;;;;;;;;;5016382;28;20057;-56
2023/11/30 12:01:04;;;;;;;8.80;4.57;;;;;;;;;;5012196;28;20108;-60
2023/11/30 12:03:52;;;;;;;7.88;4.55;;;;;;;;;;5014694;28;20060;-59
2023/11/30 12:06:46;;;;;;;6.43;4.65;;;;;;;;;;5020712;28;20041;-59
2023/11/30 12:09:33;;;;;;;9.85;4.88;;;;;;;;;;5016623;28;20124;-59
2023/11/30 12:12:31;;;;;;;7.03;4.28;;;;;;;;;;5019614;28;20057;-59
2023/11/30 12:15:18;;;;;;;6.43;4.57;;;;;;;;;;5017338;28;20455;-58
2023/11/30 12:18:14;;;;;;;5.97;4.18;;;;;;;;;;5021052;28;20053;-57
2023/11/30 12:21:02;;;;;;;5.95;4.07;;;;;;;;;;5021166;28;20416;-57
2023/11/30 12:23:56;;;;;;;6.43;4.05;;;;;;;;;;5018179;28;20052;-57
2023/11/30 12:26:43;;;;;;;8.18;4.60;;;;;;;;;;5022822;28;20045;-58
2023/11/30 12:29:37;;;;;;;8.38;4.38;;;;;;;;;;5019741;28;20085;-57
2023/11/30 12:32:24;;;;;;;7.63;4.30;;;;;;;;;;5019606;28;20050;-57
2023/11/30 12:35:18;;;;;;;6.68;4.90;;;;;;;;;;5020800;28;20053;-60
2023/11/30 12:38:13;;;;;;;6.05;4.30;;;;;;;;;;5018439;28;20057;-59
2023/11/30 12:41:06;;;;;;;7.50;4.78;;;;;;;;;;5021076;28;20497;-59
2023/11/30 12:43:53;;;;;;;7.07;4.38;;;;;;;;;;5015132;28;21634;-60
2023/11/30 12:46:47;;;;;;;7.55;4.97;;;;;;;;;;5022874;28;20115;-57
2023/11/30 12:49:34;;;;;;;7.35;5.18;;;;;;;;;;5023272;28;20059;-60
2023/11/30 12:52:28;;;;;;;7.85;4.82;;;;;;;;;;5021940;28;20632;-61
2023/11/30 12:55:22;;;;;;;9.27;4.85;;;;;;;;;;5019385;28;20054;-61
2023/11/30 12:58:16;;;;;;;7.47;4.68;;;;;;;;;;5018693;28;20420;-60
2023/11/30 13:01:10;;;;;;;7.55;4.85;;;;;;;;;;5015076;28;20065;-61
2023/11/30 13:04:04;;;;;;;8.85;5.00;;;;;;;;;;5018689;28;20497;-61
2023/11/30 13:06:51;;;;;;;6.43;4.53;;;;;;;;;;5019659;28;20076;-63
2023/11/30 13:09:45;;;;;;;7.60;4.80;;;;;;;;;;5020871;28;22165;-61
2023/11/30 13:12:32;;;;;;;6.50;4.35;;;;;;;;;;5021040;28;20049;-61
2023/11/30 13:15:26;;;;;;;7.22;4.45;;;;;;;;;;5019043;28;20564;-55
2023/11/30 13:18:14;;;;;;;6.63;4.78;;;;;;;;;;5015204;28;20157;-51
2023/11/30 13:21:07;;;;;;;6.68;4.38;;;;;;;;;;5020536;28;20049;-53
2023/11/30 13:23:54;;;;;;;6.90;4.72;;;;;;;;;;5021001;28;20701;-54
2023/11/30 13:26:48;;;;;;;7.90;4.88;;;;;;;;;;5021846;28;20504;-54
2023/11/30 13:29:35;;;;;;;9.40;4.97;;;;;;;;;;5017089;28;20061;-49
2023/11/30 13:32:35;;;;;;;7.32;4.50;;;;;;;;;;5019573;28;20546;-68
2023/11/30 13:35:19;;;;;;;9.75;5.30;;;;;;;;;;5020647;28;20049;-68
2023/11/30 13:38:13;;;;;;;7.63;4.93;;;;;;;;;;5020362;28;20535;-68
2023/11/30 13:41:01;;;;;;;8.07;5.10;;;;;;;;;;5014780;28;20072;-69
2023/11/30 13:43:55;;;;;;;9.02;5.60;;;;;;;;;;5015472;28;20504;-61
2023/11/30 13:46:42;;;;;;;7.03;4.65;;;;;;;;;;5020962;28;20927;-60
2023/11/30 13:49:35;;;;;;;8.65;5.43;;;;;;;;;;5018198;28;20499;-60
2023/11/30 13:52:24;;;;;;;9.05;5.53;;;;;;;;;;5020570;28;20107;-59
2023/11/30 13:55:18;;;;;;;8.77;5.53;;;;;;;;;;5019621;28;20480;-60
2023/11/30 13:58:07;;;;;;;9.30;5.43;;;;;;;;;;5016244;28;20099;-60
2023/11/30 14:01:00;;;;;;;10.25;5.50;;;;;;;;;;5018685;28;20049;-61
2023/11/30 14:04:03;;;;;;;10.38;5.90;;;;;;;;;;5018191;28;20524;-61
2023/11/30 14:06:49;;;;;;;11.90;5.95;;;;;;;;;;5016523;28;20057;-61
2023/11/30 14:09:41;;;;;;;10.40;5.93;;;;;;;;;;5016346;28;20081;-61
2023/11/30 14:12:29;;;;;;;12.07;6.95;;;;;;;;;;5020435;28;20085;-61
2023/11/30 14:15:23;;;;;;;9.77;6.60;;;;;;;;;;5018523;28;20053;-57
2023/11/30 14:18:10;;;;;;;11.55;6.97;;;;;;;;;;5013562;28;20148;-59
2023/11/30 14:21:04;;;;;;;12.07;5.93;;;;;;;;;;5017454;28;20069;-58
2023/11/30 14:23:51;;;;;;;9.63;6.07;;;;;;;;;;5018536;28;20057;-58
2023/11/30 14:26:45;;;;;;;12.10;6.65;;;;;;;;;;5016683;28;20127;-57
2023/11/30 14:29:32;;;;;;;10.60;6.68;;;;;;;;;;5019673;28;20211;-60
2023/11/30 14:32:26;;;;;;;12.30;6.80;;;;;;;;;;5019248;28;20050;-60
2023/11/30 14:35:13;;;;;;;11.00;6.28;;;;;;;;;;5016865;28;20152;-60
2023/11/30 14:38:07;;;;;;;11.40;6.68;;;;;;;;;;5015185;28;20635;-59
2023/11/30 14:40:54;;;;;;;11.27;6.93;;;;;;;;;;5018880;28;20049;-57
2023/11/30 14:43:48;;;;;;;14.85;7.50;;;;;;;;;;5019555;28;20049;-60
2023/11/30 14:46:36;;;;;;;11.90;6.25;;;;;;;;;;5017275;28;20045;-59
2023/11/30 14:49:29;;;;;;;11.10;6.18;;;;;;;;;;5012020;28;20090;-60
2023/11/30 14:52:16;;;;;;;10.95;6.55;;;;;;;;;;5018398;28;20061;-59
2023/11/30 14:55:10;;;;;;;11.27;6.82;;;;;;;;;;5016778;28;20677;-60
2023/11/30 14:57:57;;;;;;;11.27;6.75;;;;;;;;;;5017627;28;20061;-50
2023/11/30 15:00:57;;;;;;;11.65;6.78;;;;;;;;;;5010938;28;20058;-47
2023/11/30 15:03:51;;;;;;;14.25;6.93;;;;;;;;;;5018539;28;20068;-53
2023/11/30 15:06:45;;;;;;;13.55;6.47;;;;;;;;;;5017532;28;20056;-57
2023/11/30 15:09:32;;;;;;;11.10;6.50;;;;;;;;;;5018539;28;20542;-61
2023/11/30 15:12:26;;;;;;;10.20;6.65;;;;;;;;;;5020259;28;20523;-61
2023/11/30 15:15:13;;;;;;;11.38;6.30;;;;;;;;;;5014315;28;20053;-61
2023/11/30 15:18:07;;;;;;;11.10;6.40;;;;;;;;;;5019236;28;20071;-61
2023/11/30 15:20:54;;;;;;;9.70;6.28;;;;;;;;;;5013759;28;20081;-61
2023/11/30 15:23:48;;;;;;;9.80;6.22;;;;;;;;;;5019665;28;20144;-61
2023/11/30 15:26:35;;;;;;;12.60;6.57;;;;;;;;;;5018486;28;20641;-48
2023/11/30 15:29:29;;;;;;;13.15;5.95;;;;;;;;;;5012817;28;20434;-50
2023/11/30 15:32:16;;;;;;;11.25;6.50;;;;;;;;;;5017919;28;20069;-51
2023/11/30 15:35:10;;;;;;;13.00;6.53;;;;;;;;;;5013426;28;20460;-49
2023/11/30 15:38:04;;;;;;;12.35;6.60;;;;;;;;;;5018663;28;20115;-59
2023/11/30 15:40:58;;;;;;;14.10;6.60;;;;;;;;;;5023142;28;20138;-57
2023/11/30 15:43:45;;;;;;;10.38;6.32;;;;;;;;;;5022712;28;20061;-56
2023/11/30 15:46:43;;;;;;;11.85;6.68;;;;;;;;;;5020599;28;20046;-57
2023/11/30 15:49:31;;;;;;;12.23;6.38;;;;;;;;;;5022337;28;20061;-58
2023/11/30 15:52:25;;;;;;;11.32;6.47;;;;;;;;;;5011734;28;20279;-57
2023/11/30 15:55:12;;;;;;;10.93;6.55;;;;;;;;;;5017974;28;20614;-59
2023/11/30 15:58:06;;;;;;;13.48;7.03;;;;;;;;;;5014793;28;20479;-60
2023/11/30 16:00:59;;;;;;;11.27;6.70;;;;;;;;;;5018976;28;20104;-62
2023/11/30 16:04:00;;;;;;;16.67;7.50;;;;;;;;;;5017413;28;20144;-56
2023/11/30 16:06:54;;;;;;;10.93;6.07;;;;;;;;;;5019542;28;20054;-61
2023/11/30 16:09:41;;;;;;;12.23;7.00;;;;;;;;;;5014670;28;20590;-61
2023/11/30 16:12:35;;;;;;;14.30;6.93;;;;;;;;;;5018570;28;20056;-61
2023/11/30 16:15:28;;;;;;;16.08;6.72;;;;;;;;;;5017656;28;20057;-61
2023/11/30 16:18:16;;;;;;;14.40;7.10;;;;;;;;;;5013792;28;20504;-61
2023/11/30 16:21:17;;;;;;;13.23;7.10;;;;;;;;;;5017168;28;20053;-61
2023/11/30 16:24:11;;;;;;;14.10;7.63;;;;;;;;;;5021423;28;21055;-58
2023/11/30 16:27:05;;;;;;;17.00;7.78;;;;;;;;;;5014962;28;20429;-58
2023/11/30 16:29:59;;;;;;;15.05;8.10;;;;;;;;;;5018193;28;20254;-59
2023/11/30 16:32:53;;;;;;;14.77;8.20;;;;;;;;;;5014998;28;20072;-60
2023/11/30 16:35:47;;;;;;;15.15;7.63;;;;;;;;;;5018537;28;20544;-58
2023/11/30 16:38:34;;;;;;;14.00;7.78;;;;;;;;;;5019474;28;20489;-58
2023/11/30 16:41:28;;;;;;;14.52;8.07;;;;;;;;;;5017238;28;20417;-57
2023/11/30 16:44:15;;;;;;;13.30;7.43;;;;;;;;;;5020747;28;20463;-55
2023/11/30 16:47:09;;;;;;;13.98;7.75;;;;;;;;;;5019775;28;20059;-56